Item Display Status Humidity-temperature Sensor

Elevation Above Sea Level: 3 m

 

Deployed Sensor

  • Serial Number: 20256956
  • NDBC Property Number: 42272
  • Start Date: 11/19/2018 (14:39:24 Z)
  • End Date: Currently Active
Relative Humidity [%]     6 entries per hour
Showing data from 2/10/2020 (05:00:00 Z) to 2/9/2020 (00:00:01 Z)
Previous Next [ Day | 3-Days | 7-Days ]
First Last
Prev [ Day | 3-Days | 7-Days ] Next
First Last

Start Time:     :
End Time:     :     
Time (in GMT) :00 :50 :40 :30 :20 :10
Previous Next [ Day | 3-Days | 7-Days ]
First Last
Prev [ Day | 3-Days | 7-Days ] Next
First Last


123 => good data
MM => data is determined as missing
-- => data not received/configured
Back to Top Back to Top
2/10/2020 05:00 to 4:10 99.53 99.43 99.49 99.67 99.41 99.41
2/10/2020 04:00 to 3:10 99.41 99.37 99.17 99.04 98.96 98.94
2/10/2020 03:00 to 2:10 99.02 98.82 98.54 98.64 98.56 98.56
2/10/2020 02:00 to 1:10 98.36 98.19 98.07 97.83 97.73 97.59
2/10/2020 01:00 to 0:10 97.75 97.40 96.96 96.43 95.64 95.46
2/10/2020 00:00 to 23:10 94.83 94.55 94.27 94.33 94.59 94.45
2/9/2020 23:00 to 22:10 94.85 94.65 94.89 95.14 95.52 95.64
2/9/2020 22:00 to 21:10 95.60 96.01 96.11 96.21 95.82 96.13
2/9/2020 21:00 to 20:10 96.03 96.31 96.25 96.21 96.63 96.68
2/9/2020 20:00 to 19:10 96.51 97.10 97.36 97.34 97.24 97.06
2/9/2020 19:00 to 18:10 97.08 97.34 97.28 97.16 97.24 97.30
2/9/2020 18:00 to 17:10 97.61 97.65 97.91 98.09 97.83 97.77
2/9/2020 17:00 to 16:10 97.77 97.79 97.87 97.85 97.61 97.38
2/9/2020 16:00 to 15:10 97.53 97.59 97.61 97.61 97.38 97.00
2/9/2020 15:00 to 14:10 97.04 97.26 97.45 97.36 97.65 98.13
2/9/2020 14:00 to 13:10 98.42 98.23 98.15 98.74 98.92 99.35
2/9/2020 13:00 to 12:10 99.51 99.65 99.77 99.51 99.69 99.63
2/9/2020 12:00 to 11:10 99.61 99.27 99.27 99.59 99.65 99.73
2/9/2020 11:00 to 10:10 99.81 99.61 99.47 99.43 99.15 99.13
2/9/2020 10:00 to 9:10 99.23 99.15 99.17 98.98 98.96 98.96
2/9/2020 09:00 to 8:10 99.19 98.88 99.07 99.23 99.43 --
2/9/2020 08:00 to 7:10 -- -- -- -- -- 99.81
2/9/2020 07:00 to 6:10 99.59 99.23 98.48 97.75 97.38 97.77
2/9/2020 06:00 to 5:10 98.66 97.71 97.18 97.75 98.23 98.50
2/9/2020 05:00 to 4:10 98.58 98.40 98.23 98.50 98.94 98.62
2/9/2020 04:00 to 3:10 98.34 97.89 97.95 98.23 97.95 97.89
2/9/2020 03:00 to 2:10 98.03 97.97 98.01 97.65 97.49 97.36
2/9/2020 02:00 to 1:10 97.26 97.30 97.14 96.94 96.92 96.47
2/9/2020 01:00 to 0:10 96.57 96.39 96.47 96.11 95.82 95.56

 

 

 

Air Temperature [°C]     6 entries per hour
Showing data from 2/18/2020 (22:20:00 Z) to 2/17/2020 (00:00:01 Z)
Previous Next [ Day | 3-Days | 7-Days ]
First Last
Prev [ Day | 3-Days | 7-Days ] Next
First Last

Start Time:     :
End Time:     :     
Time (in GMT) :00 :50 :40 :30 :20 :10
Previous Next [ Day | 3-Days | 7-Days ]
First Last
Prev [ Day | 3-Days | 7-Days ] Next
First Last


123 => good data
MM => data is determined as missing
-- => data not received/configured
Back to Top Back to Top
2/18/2020 23:00 to 22:10 -- -- -- -- 25.68 25.61
2/18/2020 22:00 to 21:10 25.63 25.64 25.61 25.58 25.62 25.60
2/18/2020 21:00 to 20:10 25.53 25.52 25.52 25.59 25.59 25.62
2/18/2020 20:00 to 19:10 25.61 25.61 25.57 25.63 25.55 25.56
2/18/2020 19:00 to 18:10 25.53 25.52 25.43 25.45 25.39 25.39
2/18/2020 18:00 to 17:10 25.35 25.32 25.31 25.28 25.21 25.24
2/18/2020 17:00 to 16:10 25.20 25.19 25.10 25.12 25.12 25.11
2/18/2020 16:00 to 15:10 25.17 24.94 25.18 25.15 25.19 25.03
2/18/2020 15:00 to 14:10 25.00 24.94 24.90 24.93 24.83 24.83
2/18/2020 14:00 to 13:10 24.84 24.92 24.83 24.82 24.83 24.78
2/18/2020 13:00 to 12:10 24.79 24.78 24.74 24.72 24.75 24.71
2/18/2020 12:00 to 11:10 24.67 24.66 24.69 24.69 24.72 24.70
2/18/2020 11:00 to 10:10 24.66 24.71 24.70 24.69 24.70 24.70
2/18/2020 10:00 to 9:10 24.71 24.71 24.70 24.70 24.69 24.81
2/18/2020 09:00 to 8:10 24.76 24.78 24.82 24.84 24.89 24.87
2/18/2020 08:00 to 7:10 24.84 24.84 24.84 24.89 24.89 24.91
2/18/2020 07:00 to 6:10 24.91 24.92 24.96 24.98 25.04 25.06
2/18/2020 06:00 to 5:10 25.04 25.06 25.04 25.14 25.14 25.14
2/18/2020 05:00 to 4:10 25.19 25.19 25.22 25.22 25.22 25.19
2/18/2020 04:00 to 3:10 25.20 25.29 25.21 25.32 25.36 25.42
2/18/2020 03:00 to 2:10 25.40 25.39 25.39 25.42 25.46 25.46
2/18/2020 02:00 to 1:10 25.45 25.47 25.52 25.51 25.54 25.64
2/18/2020 01:00 to 0:10 25.58 25.52 25.51 25.56 25.60 25.59
2/18/2020 00:00 to 23:10 25.51 25.62 25.56 25.59 25.57 25.67
2/17/2020 23:00 to 22:10 25.64 25.66 25.58 25.80 25.79 25.72
2/17/2020 22:00 to 21:10 25.67 25.70 25.68 25.72 25.63 25.67
2/17/2020 21:00 to 20:10 25.66 25.68 25.65 25.71 25.66 25.63
2/17/2020 20:00 to 19:10 25.58 25.61 25.66 25.65 25.55 25.63
2/17/2020 19:00 to 18:10 25.63 25.58 25.55 25.51 25.48 25.44
2/17/2020 18:00 to 17:10 25.47 25.52 25.52 25.45 25.43 25.37
2/17/2020 17:00 to 16:10 25.42 25.47 25.40 25.39 25.43 25.39
2/17/2020 16:00 to 15:10 25.39 25.43 25.32 25.33 25.28 25.29
2/17/2020 15:00 to 14:10 25.22 25.26 25.33 25.34 25.27 25.27
2/17/2020 14:00 to 13:10 25.05 25.00 24.90 24.87 24.89 24.83
2/17/2020 13:00 to 12:10 24.88 24.81 24.81 24.79 24.80 24.83
2/17/2020 12:00 to 11:10 24.83 24.83 24.83 24.79 24.83 24.82
2/17/2020 11:00 to 10:10 24.84 24.84 24.81 24.83 24.86 24.86
2/17/2020 10:00 to 9:10 24.89 24.88 24.92 24.95 24.90 24.94
2/17/2020 09:00 to 8:10 25.00 24.99 25.09 25.11 25.06 25.04
2/17/2020 08:00 to 7:10 25.03 25.04 25.06 25.08 25.09 25.10
2/17/2020 07:00 to 6:10 25.06 25.12 25.13 25.10 25.11 25.10
2/17/2020 06:00 to 5:10 25.15 25.13 25.14 25.17 25.19 25.20
2/17/2020 05:00 to 4:10 25.20 25.20 25.24 25.22 25.26 25.28
2/17/2020 04:00 to 3:10 25.27 25.26 25.26 25.27 25.27 25.28
2/17/2020 03:00 to 2:10 25.27 25.27 25.32 25.33 25.32 25.36
2/17/2020 02:00 to 1:10 25.40 25.39 25.50 25.41 25.38 25.45
2/17/2020 01:00 to 0:10 25.45 25.43 25.47 25.51 25.53 25.57